sensor_id;sensor_type;location;lat;lon;timestamp;temperature;humidity
76211;DHT22;65003;49.518;11.280;2023-05-24T00:01:47;13.70;79.50
76211;DHT22;65003;49.518;11.280;2023-05-24T00:04:14;13.60;79.30
76211;DHT22;65003;49.518;11.280;2023-05-24T00:06:40;13.70;78.80
76211;DHT22;65003;49.518;11.280;2023-05-24T00:09:07;13.60;78.80
76211;DHT22;65003;49.518;11.280;2023-05-24T00:11:34;13.60;79.00
76211;DHT22;65003;49.518;11.280;2023-05-24T00:14:00;13.50;79.00
76211;DHT22;65003;49.518;11.280;2023-05-24T00:16:27;13.40;80.10
76211;DHT22;65003;49.518;11.280;2023-05-24T00:18:53;13.40;79.80
76211;DHT22;65003;49.518;11.280;2023-05-24T00:21:20;13.30;79.60
76211;DHT22;65003;49.518;11.280;2023-05-24T00:23:47;13.20;79.40
76211;DHT22;65003;49.518;11.280;2023-05-24T00:26:13;13.20;79.80
76211;DHT22;65003;49.518;11.280;2023-05-24T00:28:40;13.10;80.00
76211;DHT22;65003;49.518;11.280;2023-05-24T00:31:06;13.20;80.10
76211;DHT22;65003;49.518;11.280;2023-05-24T00:33:33;13.20;79.70
76211;DHT22;65003;49.518;11.280;2023-05-24T00:36:00;13.10;79.60
76211;DHT22;65003;49.518;11.280;2023-05-24T00:38:27;13.10;79.70
76211;DHT22;65003;49.518;11.280;2023-05-24T00:40:54;13.00;79.20
76211;DHT22;65003;49.518;11.280;2023-05-24T00:43:21;12.90;79.60
76211;DHT22;65003;49.518;11.280;2023-05-24T00:45:50;12.80;79.90
76211;DHT22;65003;49.518;11.280;2023-05-24T00:48:14;12.90;79.80
76211;DHT22;65003;49.518;11.280;2023-05-24T00:50:41;12.80;79.50
76211;DHT22;65003;49.518;11.280;2023-05-24T00:53:07;12.80;79.90
76211;DHT22;65003;49.518;11.280;2023-05-24T00:55:34;12.80;78.80
76211;DHT22;65003;49.518;11.280;2023-05-24T00:58:02;12.80;79.30
76211;DHT22;65003;49.518;11.280;2023-05-24T01:00:28;12.60;79.60
76211;DHT22;65003;49.518;11.280;2023-05-24T01:02:55;12.50;79.70
76211;DHT22;65003;49.518;11.280;2023-05-24T01:05:21;12.50;79.90
76211;DHT22;65003;49.518;11.280;2023-05-24T01:07:58;12.40;80.40
76211;DHT22;65003;49.518;11.280;2023-05-24T01:10:34;12.30;80.20
76211;DHT22;65003;49.518;11.280;2023-05-24T01:13:00;12.20;80.10
76211;DHT22;65003;49.518;11.280;2023-05-24T01:15:32;12.10;80.60
76211;DHT22;65003;49.518;11.280;2023-05-24T01:18:01;12.10;80.70
76211;DHT22;65003;49.518;11.280;2023-05-24T01:20:24;12.00;80.50
76211;DHT22;65003;49.518;11.280;2023-05-24T01:23:03;12.00;80.60
76211;DHT22;65003;49.518;11.280;2023-05-24T01:25:34;11.90;80.70
76211;DHT22;65003;49.518;11.280;2023-05-24T01:27:54;12.00;80.60
76211;DHT22;65003;49.518;11.280;2023-05-24T01:30:21;11.90;80.90
76211;DHT22;65003;49.518;11.280;2023-05-24T01:32:48;11.80;81.40
76211;DHT22;65003;49.518;11.280;2023-05-24T01:35:15;11.70;81.10
76211;DHT22;65003;49.518;11.280;2023-05-24T01:37:41;11.70;81.00
76211;DHT22;65003;49.518;11.280;2023-05-24T01:40:09;11.70;81.30
76211;DHT22;65003;49.518;11.280;2023-05-24T01:42:39;11.70;81.60
76211;DHT22;65003;49.518;11.280;2023-05-24T01:45:12;11.70;81.70
76211;DHT22;65003;49.518;11.280;2023-05-24T01:47:49;11.60;81.50
76211;DHT22;65003;49.518;11.280;2023-05-24T01:52:52;11.60;81.40
76211;DHT22;65003;49.518;11.280;2023-05-24T01:55:19;11.60;81.60
76211;DHT22;65003;49.518;11.280;2023-05-24T01:57:46;11.50;81.90
76211;DHT22;65003;49.518;11.280;2023-05-24T02:00:13;11.60;81.40
76211;DHT22;65003;49.518;11.280;2023-05-24T02:02:40;11.60;81.50
76211;DHT22;65003;49.518;11.280;2023-05-24T02:05:06;11.50;80.90
76211;DHT22;65003;49.518;11.280;2023-05-24T02:07:33;11.70;80.90
76211;DHT22;65003;49.518;11.280;2023-05-24T02:09:59;11.80;80.50
76211;DHT22;65003;49.518;11.280;2023-05-24T02:12:26;11.80;81.10
76211;DHT22;65003;49.518;11.280;2023-05-24T02:14:53;11.90;80.00
76211;DHT22;65003;49.518;11.280;2023-05-24T02:17:19;12.00;80.00
76211;DHT22;65003;49.518;11.280;2023-05-24T02:19:46;11.90;79.90
76211;DHT22;65003;49.518;11.280;2023-05-24T02:22:12;12.00;79.80
76211;DHT22;65003;49.518;11.280;2023-05-24T02:24:39;12.00;79.10
76211;DHT22;65003;49.518;11.280;2023-05-24T02:27:06;12.00;78.90
76211;DHT22;65003;49.518;11.280;2023-05-24T02:29:32;12.00;78.80
76211;DHT22;65003;49.518;11.280;2023-05-24T02:31:59;11.90;78.30
76211;DHT22;65003;49.518;11.280;2023-05-24T02:34:26;11.90;78.50
76211;DHT22;65003;49.518;11.280;2023-05-24T02:36:52;11.90;78.90
76211;DHT22;65003;49.518;11.280;2023-05-24T02:39:19;11.90;79.50
76211;DHT22;65003;49.518;11.280;2023-05-24T02:41:45;12.00;78.60
76211;DHT22;65003;49.518;11.280;2023-05-24T02:44:12;12.10;77.70
76211;DHT22;65003;49.518;11.280;2023-05-24T02:46:39;12.10;77.60
76211;DHT22;65003;49.518;11.280;2023-05-24T02:49:05;12.00;77.30
76211;DHT22;65003;49.518;11.280;2023-05-24T02:51:32;11.80;78.10
76211;DHT22;65003;49.518;11.280;2023-05-24T02:53:58;11.70;78.70
76211;DHT22;65003;49.518;11.280;2023-05-24T02:56:25;11.50;79.00
76211;DHT22;65003;49.518;11.280;2023-05-24T02:58:52;11.50;79.50
76211;DHT22;65003;49.518;11.280;2023-05-24T03:01:18;11.50;79.70
76211;DHT22;65003;49.518;11.280;2023-05-24T03:03:45;11.40;79.70
76211;DHT22;65003;49.518;11.280;2023-05-24T03:06:12;11.40;80.00
76211;DHT22;65003;49.518;11.280;2023-05-24T03:08:39;11.40;79.90
76211;DHT22;65003;49.518;11.280;2023-05-24T03:11:05;11.50;79.60
76211;DHT22;65003;49.518;11.280;2023-05-24T03:13:31;11.50;79.40
76211;DHT22;65003;49.518;11.280;2023-05-24T03:15:58;11.50;79.50
76211;DHT22;65003;49.518;11.280;2023-05-24T03:18:25;11.50;79.50
76211;DHT22;65003;49.518;11.280;2023-05-24T03:20:51;11.40;79.70
76211;DHT22;65003;49.518;11.280;2023-05-24T03:23:18;11.40;79.30
76211;DHT22;65003;49.518;11.280;2023-05-24T03:25:45;11.50;79.70
76211;DHT22;65003;49.518;11.280;2023-05-24T03:28:11;11.50;79.40
76211;DHT22;65003;49.518;11.280;2023-05-24T03:30:38;11.60;79.50
76211;DHT22;65003;49.518;11.280;2023-05-24T03:33:04;11.50;79.40
76211;DHT22;65003;49.518;11.280;2023-05-24T03:35:31;11.50;79.20
76211;DHT22;65003;49.518;11.280;2023-05-24T03:37:58;11.60;78.60
76211;DHT22;65003;49.518;11.280;2023-05-24T03:40:24;11.60;78.40
76211;DHT22;65003;49.518;11.280;2023-05-24T03:42:51;11.70;78.20
76211;DHT22;65003;49.518;11.280;2023-05-24T03:45:17;11.70;77.90
76211;DHT22;65003;49.518;11.280;2023-05-24T03:47:45;11.80;77.60
76211;DHT22;65003;49.518;11.280;2023-05-24T03:50:12;11.80;77.20
76211;DHT22;65003;49.518;11.280;2023-05-24T03:52:41;11.90;77.30
76211;DHT22;65003;49.518;11.280;2023-05-24T03:55:06;11.90;76.70
76211;DHT22;65003;49.518;11.280;2023-05-24T03:57:33;11.80;77.20
76211;DHT22;65003;49.518;11.280;2023-05-24T04:00:00;11.90;77.00
76211;DHT22;65003;49.518;11.280;2023-05-24T04:02:26;11.90;76.70
76211;DHT22;65003;49.518;11.280;2023-05-24T04:04:54;11.80;76.90
76211;DHT22;65003;49.518;11.280;2023-05-24T04:07:20;11.90;76.90
76211;DHT22;65003;49.518;11.280;2023-05-24T04:09:47;12.00;76.90
76211;DHT22;65003;49.518;11.280;2023-05-24T04:12:13;12.10;76.10
76211;DHT22;65003;49.518;11.280;2023-05-24T04:14:40;12.30;75.50
76211;DHT22;65003;49.518;11.280;2023-05-24T04:17:06;12.50;74.40
76211;DHT22;65003;49.518;11.280;2023-05-24T04:19:33;12.70;73.70
76211;DHT22;65003;49.518;11.280;2023-05-24T04:22:00;12.70;72.80
76211;DHT22;65003;49.518;11.280;2023-05-24T04:24:26;12.70;72.80
76211;DHT22;65003;49.518;11.280;2023-05-24T04:26:53;12.60;72.80
76211;DHT22;65003;49.518;11.280;2023-05-24T04:29:20;12.70;72.50
76211;DHT22;65003;49.518;11.280;2023-05-24T04:31:46;12.80;72.70
76211;DHT22;65003;49.518;11.280;2023-05-24T04:34:13;12.90;72.00
76211;DHT22;65003;49.518;11.280;2023-05-24T04:36:40;13.00;71.80
76211;DHT22;65003;49.518;11.280;2023-05-24T04:39:07;13.10;71.60
76211;DHT22;65003;49.518;11.280;2023-05-24T04:41:33;13.10;71.90
76211;DHT22;65003;49.518;11.280;2023-05-24T04:44:01;13.10;71.40
76211;DHT22;65003;49.518;11.280;2023-05-24T04:46:27;13.10;70.80
76211;DHT22;65003;49.518;11.280;2023-05-24T04:48:54;13.10;71.50
76211;DHT22;65003;49.518;11.280;2023-05-24T04:51:21;13.10;71.90
76211;DHT22;65003;49.518;11.280;2023-05-24T04:53:47;13.00;71.10
76211;DHT22;65003;49.518;11.280;2023-05-24T04:56:15;13.00;71.80
76211;DHT22;65003;49.518;11.280;2023-05-24T04:58:41;12.80;72.20
76211;DHT22;65003;49.518;11.280;2023-05-24T05:01:08;12.70;72.50
76211;DHT22;65003;49.518;11.280;2023-05-24T05:03:34;12.80;72.40
76211;DHT22;65003;49.518;11.280;2023-05-24T05:06:01;12.80;73.00
76211;DHT22;65003;49.518;11.280;2023-05-24T05:08:28;12.50;73.90
76211;DHT22;65003;49.518;11.280;2023-05-24T05:10:54;12.50;73.90
76211;DHT22;65003;49.518;11.280;2023-05-24T05:13:21;12.60;73.80
76211;DHT22;65003;49.518;11.280;2023-05-24T05:15:48;12.80;73.30
76211;DHT22;65003;49.518;11.280;2023-05-24T05:18:14;12.90;72.90
76211;DHT22;65003;49.518;11.280;2023-05-24T05:20:41;13.10;73.30
76211;DHT22;65003;49.518;11.280;2023-05-24T05:23:08;13.10;72.00
76211;DHT22;65003;49.518;11.280;2023-05-24T05:25:34;13.20;72.00
76211;DHT22;65003;49.518;11.280;2023-05-24T05:28:01;13.10;71.60
76211;DHT22;65003;49.518;11.280;2023-05-24T05:30:28;13.20;72.10
76211;DHT22;65003;49.518;11.280;2023-05-24T05:32:54;13.20;71.00
76211;DHT22;65003;49.518;11.280;2023-05-24T05:35:21;13.50;70.00
76211;DHT22;65003;49.518;11.280;2023-05-24T05:37:48;13.70;68.80
76211;DHT22;65003;49.518;11.280;2023-05-24T05:40:15;13.60;69.90
76211;DHT22;65003;49.518;11.280;2023-05-24T05:42:41;13.50;69.70
76211;DHT22;65003;49.518;11.280;2023-05-24T05:45:08;13.60;69.90
76211;DHT22;65003;49.518;11.280;2023-05-24T05:47:35;13.60;69.20
76211;DHT22;65003;49.518;11.280;2023-05-24T05:50:01;13.60;69.10
76211;DHT22;65003;49.518;11.280;2023-05-24T05:52:28;13.80;69.10
76211;DHT22;65003;49.518;11.280;2023-05-24T05:54:55;13.80;67.50
76211;DHT22;65003;49.518;11.280;2023-05-24T05:57:21;13.90;67.60
76211;DHT22;65003;49.518;11.280;2023-05-24T05:59:48;14.00;67.00
76211;DHT22;65003;49.518;11.280;2023-05-24T06:02:14;13.90;67.20
76211;DHT22;65003;49.518;11.280;2023-05-24T06:04:41;13.90;67.60
76211;DHT22;65003;49.518;11.280;2023-05-24T06:07:08;13.90;67.50
76211;DHT22;65003;49.518;11.280;2023-05-24T06:09:34;13.70;67.60
76211;DHT22;65003;49.518;11.280;2023-05-24T06:12:01;13.50;68.70
76211;DHT22;65003;49.518;11.280;2023-05-24T06:14:27;13.40;68.90
76211;DHT22;65003;49.518;11.280;2023-05-24T06:16:54;13.30;68.90
76211;DHT22;65003;49.518;11.280;2023-05-24T06:19:21;13.20;70.10
76211;DHT22;65003;49.518;11.280;2023-05-24T06:21:47;13.30;70.40
76211;DHT22;65003;49.518;11.280;2023-05-24T06:24:14;13.30;70.20
76211;DHT22;65003;49.518;11.280;2023-05-24T06:26:41;13.30;69.50
76211;DHT22;65003;49.518;11.280;2023-05-24T06:29:07;13.30;70.40
76211;DHT22;65003;49.518;11.280;2023-05-24T06:31:34;13.40;69.40
76211;DHT22;65003;49.518;11.280;2023-05-24T06:34:00;13.60;68.80
76211;DHT22;65003;49.518;11.280;2023-05-24T06:36:27;13.60;68.90
76211;DHT22;65003;49.518;11.280;2023-05-24T06:38:54;13.70;68.90
76211;DHT22;65003;49.518;11.280;2023-05-24T06:41:20;13.60;69.10
76211;DHT22;65003;49.518;11.280;2023-05-24T06:43:47;13.60;68.70
76211;DHT22;65003;49.518;11.280;2023-05-24T06:46:13;13.60;68.90
76211;DHT22;65003;49.518;11.280;2023-05-24T06:48:40;13.80;69.00
76211;DHT22;65003;49.518;11.280;2023-05-24T06:51:07;13.70;68.70
76211;DHT22;65003;49.518;11.280;2023-05-24T06:53:33;13.60;69.30
76211;DHT22;65003;49.518;11.280;2023-05-24T06:56:00;13.70;68.80
76211;DHT22;65003;49.518;11.280;2023-05-24T06:58:27;13.70;69.50
76211;DHT22;65003;49.518;11.280;2023-05-24T07:00:54;14.00;68.30
76211;DHT22;65003;49.518;11.280;2023-05-24T07:03:20;14.20;66.40
76211;DHT22;65003;49.518;11.280;2023-05-24T07:05:47;14.20;66.70
76211;DHT22;65003;49.518;11.280;2023-05-24T07:08:13;14.40;66.10
76211;DHT22;65003;49.518;11.280;2023-05-24T07:10:40;14.60;65.80
76211;DHT22;65003;49.518;11.280;2023-05-24T07:13:07;14.70;65.00
76211;DHT22;65003;49.518;11.280;2023-05-24T07:15:34;14.70;66.10
76211;DHT22;65003;49.518;11.280;2023-05-24T07:18:00;14.60;65.00
76211;DHT22;65003;49.518;11.280;2023-05-24T07:20:27;14.40;65.70
76211;DHT22;65003;49.518;11.280;2023-05-24T07:22:53;14.70;66.20
76211;DHT22;65003;49.518;11.280;2023-05-24T07:25:20;14.90;65.60
76211;DHT22;65003;49.518;11.280;2023-05-24T07:27:47;15.20;64.20
76211;DHT22;65003;49.518;11.280;2023-05-24T07:30:13;15.30;63.60
76211;DHT22;65003;49.518;11.280;2023-05-24T07:32:40;15.20;63.70
76211;DHT22;65003;49.518;11.280;2023-05-24T07:35:07;15.30;63.50
76211;DHT22;65003;49.518;11.280;2023-05-24T07:37:34;15.40;61.90
76211;DHT22;65003;49.518;11.280;2023-05-24T07:40:00;15.50;62.50
76211;DHT22;65003;49.518;11.280;2023-05-24T07:42:27;15.70;62.30
76211;DHT22;65003;49.518;11.280;2023-05-24T07:44:53;15.50;61.30
76211;DHT22;65003;49.518;11.280;2023-05-24T07:47:20;15.00;62.10
76211;DHT22;65003;49.518;11.280;2023-05-24T07:49:47;14.90;63.00
76211;DHT22;65003;49.518;11.280;2023-05-24T07:52:13;15.00;63.70
76211;DHT22;65003;49.518;11.280;2023-05-24T07:54:40;15.10;64.00
76211;DHT22;65003;49.518;11.280;2023-05-24T07:57:06;15.20;62.70
76211;DHT22;65003;49.518;11.280;2023-05-24T07:59:33;15.40;62.20
76211;DHT22;65003;49.518;11.280;2023-05-24T08:02:00;15.40;62.60
76211;DHT22;65003;49.518;11.280;2023-05-24T08:04:26;15.30;62.60
76211;DHT22;65003;49.518;11.280;2023-05-24T08:06:53;15.30;61.90
76211;DHT22;65003;49.518;11.280;2023-05-24T08:09:19;15.30;61.40
76211;DHT22;65003;49.518;11.280;2023-05-24T08:11:46;15.20;62.40
76211;DHT22;65003;49.518;11.280;2023-05-24T08:14:12;15.20;62.60
76211;DHT22;65003;49.518;11.280;2023-05-24T08:16:39;15.30;63.50
76211;DHT22;65003;49.518;11.280;2023-05-24T08:19:06;15.20;64.10
76211;DHT22;65003;49.518;11.280;2023-05-24T08:21:32;15.00;62.80
76211;DHT22;65003;49.518;11.280;2023-05-24T08:23:59;15.00;63.40
76211;DHT22;65003;49.518;11.280;2023-05-24T08:26:25;15.00;64.10
76211;DHT22;65003;49.518;11.280;2023-05-24T08:28:52;14.90;63.50
76211;DHT22;65003;49.518;11.280;2023-05-24T08:31:19;14.70;64.90
76211;DHT22;65003;49.518;11.280;2023-05-24T08:33:45;14.70;66.10
76211;DHT22;65003;49.518;11.280;2023-05-24T08:36:12;14.60;66.60
76211;DHT22;65003;49.518;11.280;2023-05-24T08:38:39;14.50;66.60
76211;DHT22;65003;49.518;11.280;2023-05-24T08:41:05;14.60;67.70
76211;DHT22;65003;49.518;11.280;2023-05-24T08:43:32;14.50;66.40
76211;DHT22;65003;49.518;11.280;2023-05-24T08:45:58;14.60;66.10
76211;DHT22;65003;49.518;11.280;2023-05-24T08:48:25;14.80;66.30
76211;DHT22;65003;49.518;11.280;2023-05-24T08:50:52;14.80;65.90
76211;DHT22;65003;49.518;11.280;2023-05-24T08:53:19;14.60;66.20
76211;DHT22;65003;49.518;11.280;2023-05-24T08:55:45;14.40;67.20
76211;DHT22;65003;49.518;11.280;2023-05-24T08:58:11;14.20;67.70
76211;DHT22;65003;49.518;11.280;2023-05-24T09:00:38;14.20;67.30
76211;DHT22;65003;49.518;11.280;2023-05-24T09:03:05;14.20;68.30
76211;DHT22;65003;49.518;11.280;2023-05-24T09:05:31;14.20;68.50
76211;DHT22;65003;49.518;11.280;2023-05-24T09:07:58;14.30;67.60
76211;DHT22;65003;49.518;11.280;2023-05-24T09:10:24;14.40;67.70
76211;DHT22;65003;49.518;11.280;2023-05-24T09:12:53;14.50;68.00
76211;DHT22;65003;49.518;11.280;2023-05-24T09:15:17;14.50;67.40
76211;DHT22;65003;49.518;11.280;2023-05-24T09:17:44;14.40;66.50
76211;DHT22;65003;49.518;11.280;2023-05-24T09:20:11;14.50;66.50
76211;DHT22;65003;49.518;11.280;2023-05-24T09:22:38;14.50;66.30
76211;DHT22;65003;49.518;11.280;2023-05-24T09:25:05;14.50;68.10
76211;DHT22;65003;49.518;11.280;2023-05-24T09:27:32;14.50;67.60
76211;DHT22;65003;49.518;11.280;2023-05-24T09:29:58;14.60;67.30
76211;DHT22;65003;49.518;11.280;2023-05-24T09:32:25;14.70;66.10
76211;DHT22;65003;49.518;11.280;2023-05-24T09:34:51;14.70;66.50
76211;DHT22;65003;49.518;11.280;2023-05-24T09:37:20;14.70;65.70
76211;DHT22;65003;49.518;11.280;2023-05-24T09:39:47;14.50;66.40
76211;DHT22;65003;49.518;11.280;2023-05-24T09:42:14;14.40;66.70
76211;DHT22;65003;49.518;11.280;2023-05-24T09:44:40;14.30;67.00
76211;DHT22;65003;49.518;11.280;2023-05-24T09:47:07;14.20;67.70
76211;DHT22;65003;49.518;11.280;2023-05-24T09:49:35;14.10;68.00
76211;DHT22;65003;49.518;11.280;2023-05-24T09:52:00;14.00;68.60
76211;DHT22;65003;49.518;11.280;2023-05-24T09:54:27;14.10;68.30
76211;DHT22;65003;49.518;11.280;2023-05-24T09:56:53;14.10;67.90
76211;DHT22;65003;49.518;11.280;2023-05-24T09:59:20;14.10;66.70
76211;DHT22;65003;49.518;11.280;2023-05-24T10:01:47;14.20;65.50
76211;DHT22;65003;49.518;11.280;2023-05-24T10:04:13;14.30;65.80
76211;DHT22;65003;49.518;11.280;2023-05-24T10:06:40;14.50;64.60
76211;DHT22;65003;49.518;11.280;2023-05-24T10:09:07;14.70;64.80
76211;DHT22;65003;49.518;11.280;2023-05-24T10:11:34;14.70;64.80
76211;DHT22;65003;49.518;11.280;2023-05-24T10:14:00;14.80;63.60
76211;DHT22;65003;49.518;11.280;2023-05-24T10:16:26;15.00;64.10
76211;DHT22;65003;49.518;11.280;2023-05-24T10:18:53;15.10;64.30
76211;DHT22;65003;49.518;11.280;2023-05-24T10:21:20;15.10;63.60
76211;DHT22;65003;49.518;11.280;2023-05-24T10:23:47;15.20;62.90
76211;DHT22;65003;49.518;11.280;2023-05-24T10:26:13;15.40;62.50
76211;DHT22;65003;49.518;11.280;2023-05-24T10:28:41;15.60;60.30
76211;DHT22;65003;49.518;11.280;2023-05-24T10:31:10;15.70;59.60
76211;DHT22;65003;49.518;11.280;2023-05-24T10:33:36;15.70;60.80
76211;DHT22;65003;49.518;11.280;2023-05-24T10:36:03;15.80;60.40
76211;DHT22;65003;49.518;11.280;2023-05-24T10:38:30;15.90;58.80
76211;DHT22;65003;49.518;11.280;2023-05-24T10:40:56;15.90;59.50
76211;DHT22;65003;49.518;11.280;2023-05-24T10:43:23;16.00;59.20
76211;DHT22;65003;49.518;11.280;2023-05-24T10:45:50;16.20;59.00
76211;DHT22;65003;49.518;11.280;2023-05-24T10:48:32;16.30;58.60
76211;DHT22;65003;49.518;11.280;2023-05-24T10:50:59;16.40;58.80
76211;DHT22;65003;49.518;11.280;2023-05-24T10:53:25;16.50;57.10
76211;DHT22;65003;49.518;11.280;2023-05-24T10:55:57;16.50;56.90
76211;DHT22;65003;49.518;11.280;2023-05-24T10:58:42;16.60;57.00
76211;DHT22;65003;49.518;11.280;2023-05-24T11:00:53;16.30;57.40
76211;DHT22;65003;49.518;11.280;2023-05-24T11:03:20;15.90;58.10
76211;DHT22;65003;49.518;11.280;2023-05-24T11:05:50;15.70;59.90
76211;DHT22;65003;49.518;11.280;2023-05-24T11:08:31;15.50;60.00
76211;DHT22;65003;49.518;11.280;2023-05-24T11:11:05;15.50;59.80
76211;DHT22;65003;49.518;11.280;2023-05-24T11:13:29;15.70;59.50
76211;DHT22;65003;49.518;11.280;2023-05-24T11:15:56;16.00;58.30
76211;DHT22;65003;49.518;11.280;2023-05-24T11:18:22;16.30;58.50
76211;DHT22;65003;49.518;11.280;2023-05-24T11:20:49;16.40;57.10
76211;DHT22;65003;49.518;11.280;2023-05-24T11:23:16;16.50;56.80
76211;DHT22;65003;49.518;11.280;2023-05-24T11:25:43;16.60;55.60
76211;DHT22;65003;49.518;11.280;2023-05-24T11:28:09;16.70;55.50
76211;DHT22;65003;49.518;11.280;2023-05-24T11:30:40;16.70;56.20
76211;DHT22;65003;49.518;11.280;2023-05-24T11:33:15;16.70;57.20
76211;DHT22;65003;49.518;11.280;2023-05-24T11:35:41;16.60;57.20
76211;DHT22;65003;49.518;11.280;2023-05-24T11:38:09;16.60;57.40
76211;DHT22;65003;49.518;11.280;2023-05-24T11:40:35;16.70;56.30
76211;DHT22;65003;49.518;11.280;2023-05-24T11:43:04;16.80;55.00
76211;DHT22;65003;49.518;11.280;2023-05-24T11:45:28;17.10;53.90
76211;DHT22;65003;49.518;11.280;2023-05-24T11:47:55;17.20;53.80
76211;DHT22;65003;49.518;11.280;2023-05-24T11:50:22;17.40;51.80
76211;DHT22;65003;49.518;11.280;2023-05-24T11:52:49;17.50;51.00
76211;DHT22;65003;49.518;11.280;2023-05-24T11:55:22;17.60;51.40
76211;DHT22;65003;49.518;11.280;2023-05-24T11:57:43;17.60;51.70
76211;DHT22;65003;49.518;11.280;2023-05-24T12:00:09;17.60;53.10
76211;DHT22;65003;49.518;11.280;2023-05-24T12:02:36;17.60;53.60
76211;DHT22;65003;49.518;11.280;2023-05-24T12:05:06;17.60;52.60
76211;DHT22;65003;49.518;11.280;2023-05-24T12:07:32;17.70;53.30
76211;DHT22;65003;49.518;11.280;2023-05-24T12:09:59;17.70;52.50
76211;DHT22;65003;49.518;11.280;2023-05-24T12:12:25;17.60;52.80
76211;DHT22;65003;49.518;11.280;2023-05-24T12:14:54;17.40;52.90
76211;DHT22;65003;49.518;11.280;2023-05-24T12:17:19;17.30;53.50
76211;DHT22;65003;49.518;11.280;2023-05-24T12:19:47;17.50;52.50
76211;DHT22;65003;49.518;11.280;2023-05-24T12:22:13;17.70;53.80
76211;DHT22;65003;49.518;11.280;2023-05-24T12:24:39;17.90;50.50
76211;DHT22;65003;49.518;11.280;2023-05-24T12:27:07;18.10;50.00
76211;DHT22;65003;49.518;11.280;2023-05-24T12:29:35;18.20;49.50
76211;DHT22;65003;49.518;11.280;2023-05-24T12:32:01;18.10;46.30
76211;DHT22;65003;49.518;11.280;2023-05-24T12:34:27;18.00;47.00
76211;DHT22;65003;49.518;11.280;2023-05-24T12:36:54;17.90;46.90
76211;DHT22;65003;49.518;11.280;2023-05-24T12:39:22;17.90;48.20
76211;DHT22;65003;49.518;11.280;2023-05-24T12:41:49;18.10;48.50
76211;DHT22;65003;49.518;11.280;2023-05-24T12:44:15;18.30;45.40
76211;DHT22;65003;49.518;11.280;2023-05-24T12:46:42;18.40;46.60
76211;DHT22;65003;49.518;11.280;2023-05-24T12:49:09;18.40;46.20
76211;DHT22;65003;49.518;11.280;2023-05-24T12:51:35;18.00;45.30
76211;DHT22;65003;49.518;11.280;2023-05-24T12:54:02;18.10;46.10
76211;DHT22;65003;49.518;11.280;2023-05-24T12:56:28;18.20;46.80
76211;DHT22;65003;49.518;11.280;2023-05-24T12:58:55;18.40;46.00
76211;DHT22;65003;49.518;11.280;2023-05-24T13:01:22;18.50;45.70
76211;DHT22;65003;49.518;11.280;2023-05-24T13:03:48;18.20;43.70
76211;DHT22;65003;49.518;11.280;2023-05-24T13:06:15;18.10;45.30
76211;DHT22;65003;49.518;11.280;2023-05-24T13:08:42;18.20;43.80
76211;DHT22;65003;49.518;11.280;2023-05-24T13:11:08;18.10;43.60
76211;DHT22;65003;49.518;11.280;2023-05-24T13:13:35;17.90;43.50
76211;DHT22;65003;49.518;11.280;2023-05-24T13:16:01;17.90;43.10
76211;DHT22;65003;49.518;11.280;2023-05-24T13:18:28;18.20;43.00
76211;DHT22;65003;49.518;11.280;2023-05-24T13:20:55;18.10;43.50
76211;DHT22;65003;49.518;11.280;2023-05-24T13:23:21;18.30;44.80
76211;DHT22;65003;49.518;11.280;2023-05-24T13:25:48;18.50;44.50
76211;DHT22;65003;49.518;11.280;2023-05-24T13:28:15;18.70;44.00
76211;DHT22;65003;49.518;11.280;2023-05-24T13:30:41;18.90;43.00
76211;DHT22;65003;49.518;11.280;2023-05-24T13:33:08;18.70;40.50
76211;DHT22;65003;49.518;11.280;2023-05-24T13:35:34;18.70;39.80
76211;DHT22;65003;49.518;11.280;2023-05-24T13:38:01;18.60;39.60
76211;DHT22;65003;49.518;11.280;2023-05-24T13:40:28;18.30;39.40
76211;DHT22;65003;49.518;11.280;2023-05-24T13:42:55;18.20;39.50
76211;DHT22;65003;49.518;11.280;2023-05-24T13:45:21;18.20;40.10
76211;DHT22;65003;49.518;11.280;2023-05-24T13:47:48;18.40;41.50
76211;DHT22;65003;49.518;11.280;2023-05-24T13:50:15;18.60;39.40
76211;DHT22;65003;49.518;11.280;2023-05-24T13:52:42;18.50;39.80
76211;DHT22;65003;49.518;11.280;2023-05-24T13:55:08;18.40;40.00
76211;DHT22;65003;49.518;11.280;2023-05-24T13:57:35;18.30;40.50
76211;DHT22;65003;49.518;11.280;2023-05-24T14:00:02;18.10;41.20
76211;DHT22;65003;49.518;11.280;2023-05-24T14:02:28;18.20;42.90
76211;DHT22;65003;49.518;11.280;2023-05-24T14:04:55;18.20;41.10
76211;DHT22;65003;49.518;11.280;2023-05-24T14:07:21;18.20;41.40
76211;DHT22;65003;49.518;11.280;2023-05-24T14:09:48;18.40;41.90
76211;DHT22;65003;49.518;11.280;2023-05-24T14:12:15;18.40;42.60
76211;DHT22;65003;49.518;11.280;2023-05-24T14:14:41;18.40;41.50
76211;DHT22;65003;49.518;11.280;2023-05-24T14:17:08;18.10;40.90
76211;DHT22;65003;49.518;11.280;2023-05-24T14:19:34;18.00;43.40
76211;DHT22;65003;49.518;11.280;2023-05-24T14:22:01;18.10;41.70
76211;DHT22;65003;49.518;11.280;2023-05-24T14:24:28;18.20;42.10
76211;DHT22;65003;49.518;11.280;2023-05-24T14:26:54;18.50;40.70
76211;DHT22;65003;49.518;11.280;2023-05-24T14:29:21;18.40;39.80
76211;DHT22;65003;49.518;11.280;2023-05-24T14:31:48;18.10;39.70
76211;DHT22;65003;49.518;11.280;2023-05-24T14:34:14;18.00;39.40
76211;DHT22;65003;49.518;11.280;2023-05-24T14:36:41;18.00;36.50
76211;DHT22;65003;49.518;11.280;2023-05-24T14:39:07;17.90;38.60
76211;DHT22;65003;49.518;11.280;2023-05-24T14:41:34;17.70;39.70
76211;DHT22;65003;49.518;11.280;2023-05-24T14:44:00;17.70;38.90
76211;DHT22;65003;49.518;11.280;2023-05-24T14:46:27;17.70;36.30
76211;DHT22;65003;49.518;11.280;2023-05-24T14:48:54;17.60;37.00
76211;DHT22;65003;49.518;11.280;2023-05-24T14:51:20;17.70;37.90
76211;DHT22;65003;49.518;11.280;2023-05-24T14:53:47;17.70;37.70
76211;DHT22;65003;49.518;11.280;2023-05-24T14:56:13;17.60;38.20
76211;DHT22;65003;49.518;11.280;2023-05-24T14:58:40;17.70;37.00
76211;DHT22;65003;49.518;11.280;2023-05-24T15:01:07;17.50;36.70
76211;DHT22;65003;49.518;11.280;2023-05-24T15:03:34;17.40;36.80
76211;DHT22;65003;49.518;11.280;2023-05-24T15:06:00;17.50;37.50
76211;DHT22;65003;49.518;11.280;2023-05-24T15:08:26;17.30;38.00
76211;DHT22;65003;49.518;11.280;2023-05-24T15:10:53;17.30;38.00
76211;DHT22;65003;49.518;11.280;2023-05-24T15:13:20;17.30;37.50
76211;DHT22;65003;49.518;11.280;2023-05-24T15:15:46;17.40;37.40